Time;durP1;ratioP1;P1;durP2;ratioP2;P2;SDS_P1;SDS_P2;PMS_P1;PMS_P2;Temp;Humidity;BMP_temperature;BMP_pressure;BME280_temperature;BME280_humidity;BME280_pressure;Samples;Min_cycle;Max_cycle;Signal;HPM_P1;HPM_P2
2023/08/07 00:02:19;;;;;;;13.18;3.00;;;;;;;14.07;100.00;101263.25;5053020;28;20021;-63
2023/08/07 00:04:44;;;;;;;10.80;2.75;;;;;;;14.04;100.00;101268.56;5052946;28;20436;-62
2023/08/07 00:07:10;;;;;;;17.42;3.22;;;;;;;14.06;100.00;101274.78;5052754;28;20025;-62
2023/08/07 00:09:35;;;;;;;13.98;3.00;;;;;;;14.09;100.00;101279.19;5052708;28;20029;-63
2023/08/07 00:12:00;;;;;;;15.93;2.85;;;;;;;14.08;100.00;101280.97;5052778;28;20095;-63
2023/08/07 00:14:26;;;;;;;12.10;2.78;;;;;;;14.06;100.00;101271.25;5052867;28;20025;-63
2023/08/07 00:16:51;;;;;;;13.07;2.75;;;;;;;14.01;100.00;101250.84;5052615;28;20025;-63
2023/08/07 00:19:16;;;;;;;6.68;2.33;;;;;;;13.92;100.00;101239.31;5052860;28;20025;-63
2023/08/07 00:21:42;;;;;;;10.38;2.40;;;;;;;13.83;100.00;101263.16;5052640;28;20029;-62
2023/08/07 00:24:07;;;;;;;10.60;2.50;;;;;;;13.85;100.00;101267.63;5052509;28;20063;-62
2023/08/07 00:26:33;;;;;;;10.45;2.55;;;;;;;13.83;100.00;101255.19;5052456;28;20078;-62
2023/08/07 00:28:58;;;;;;;8.48;2.35;;;;;;;13.76;100.00;101262.28;5052863;28;20390;-62
2023/08/07 00:31:24;;;;;;;6.45;2.42;;;;;;;13.74;100.00;101275.53;5052695;28;20095;-62
2023/08/07 00:33:53;;;;;;;7.22;2.22;;;;;;;13.71;100.00;101269.34;5052337;28;20068;-62
2023/08/07 00:36:19;;;;;;;9.85;2.50;;;;;;;13.72;100.00;101265.78;5052686;28;20509;-63
2023/08/07 00:38:44;;;;;;;8.18;2.40;;;;;;;13.68;100.00;101258.69;5052554;28;20029;-62
2023/08/07 00:41:10;;;;;;;8.50;2.47;;;;;;;13.68;100.00;101270.19;5052333;28;20032;-62
2023/08/07 00:43:35;;;;;;;9.30;2.13;;;;;;;13.67;100.00;101268.44;5052944;28;20115;-62
2023/08/07 00:46:02;;;;;;;8.18;2.30;;;;;;;13.70;100.00;101254.25;5056234;28;20094;-63
2023/08/07 00:48:28;;;;;;;12.38;3.00;;;;;;;13.69;100.00;101266.66;5056320;28;20112;-63
2023/08/07 00:50:54;;;;;;;11.82;2.72;;;;;;;13.72;100.00;101271.97;5056244;28;20041;-62
2023/08/07 00:53:19;;;;;;;12.10;2.78;;;;;;;13.70;100.00;101279.06;5056088;28;20052;-62
2023/08/07 00:55:45;;;;;;;9.52;2.72;;;;;;;13.69;100.00;101274.63;5056025;28;20394;-62
2023/08/07 00:58:11;;;;;;;11.65;2.80;;;;;;;13.65;100.00;101275.47;5056307;28;20057;-63
2023/08/07 01:00:37;;;;;;;18.02;3.10;;;;;;;13.69;100.00;101268.41;5056071;28;20478;-63
2023/08/07 01:03:05;;;;;;;10.90;2.50;;;;;;;13.71;100.00;101264.03;5037954;28;20021;-63
2023/08/07 01:05:31;;;;;;;10.40;2.65;;;;;;;13.73;100.00;101272.88;5055994;28;20025;-63
2023/08/07 01:07:56;;;;;;;9.95;2.90;;;;;;;13.64;100.00;101251.59;5055874;28;20029;-63
2023/08/07 01:10:49;;;;;;;11.23;3.13;;;;;;;13.69;100.00;101271.97;5055805;28;20025;-63
2023/08/07 01:13:56;;;;;;;13.35;2.80;;;;;;;13.69;100.00;101271.06;5055316;28;20041;-63
2023/08/07 01:16:42;;;;;;;11.02;2.90;;;;;;;13.69;100.00;101269.31;5055970;28;20044;-63
2023/08/07 01:19:17;;;;;;;17.60;3.08;;;;;;;13.74;100.00;101275.53;5054527;28;20039;-62
2023/08/07 01:21:48;;;;;;;11.32;2.70;;;;;;;13.76;100.00;101281.75;5055652;28;20387;-63
2023/08/07 01:24:14;;;;;;;10.15;2.55;;;;;;;13.82;100.00;101275.56;5055680;28;20047;-63
2023/08/07 01:26:42;;;;;;;11.73;2.80;;;;;;;13.81;100.00;101278.22;5055713;28;20433;-62
2023/08/07 01:29:26;;;;;;;8.88;2.85;;;;;;;13.82;100.00;101282.66;5055804;28;20441;-63
2023/08/07 01:31:55;;;;;;;13.45;3.00;;;;;;;13.78;100.00;101292.38;5055603;28;20032;-63
2023/08/07 01:34:23;;;;;;;9.65;2.78;;;;;;;13.81;100.00;101294.16;5055550;28;20052;-63
2023/08/07 01:36:50;;;;;;;13.23;2.80;;;;;;;13.83;100.00;101298.56;5055310;28;20478;-63
2023/08/07 01:39:17;;;;;;;11.18;2.60;;;;;;;13.82;100.00;101290.63;5055279;28;20025;-62
2023/08/07 01:41:43;;;;;;;14.38;2.78;;;;;;;13.86;100.00;101289.75;5037281;28;20132;-63
2023/08/07 01:44:08;;;;;;;9.48;3.10;;;;;;;13.87;100.00;101291.50;5054107;28;20112;-63
2023/08/07 01:46:34;;;;;;;11.40;2.83;;;;;;;13.90;100.00;101279.13;5053806;28;20035;-62
2023/08/07 01:48:59;;;;;;;12.70;3.00;;;;;;;13.90;100.00;101294.19;5055110;28;20025;-63
2023/08/07 01:51:24;;;;;;;11.40;2.80;;;;;;;13.84;100.00;101287.09;5054030;28;20036;-62
2023/08/07 01:53:50;;;;;;;11.40;2.58;;;;;;;13.86;100.00;101297.72;5054826;28;20380;-62
2023/08/07 01:56:15;;;;;;;11.95;3.13;;;;;;;13.81;100.00;101289.72;5036958;28;20486;-62
2023/08/07 01:58:41;;;;;;;11.35;2.70;;;;;;;13.81;100.00;101302.13;5055054;28;20021;-63
2023/08/07 02:01:06;;;;;;;9.73;2.63;;;;;;;13.85;100.00;101303.91;5054863;28;20065;-63
2023/08/07 02:03:31;;;;;;;8.45;2.70;;;;;;;13.83;100.00;101308.31;5054945;28;20025;-63
2023/08/07 02:05:57;;;;;;;9.80;2.78;;;;;;;13.81;100.00;101308.31;5055123;28;20051;-63
2023/08/07 02:08:22;;;;;;;11.07;2.65;;;;;;;13.77;100.00;101310.06;5055067;28;20079;-63
2023/08/07 02:10:48;;;;;;;14.40;3.30;;;;;;;13.73;100.00;101312.72;5036799;28;20479;-62
2023/08/07 02:13:13;;;;;;;10.52;2.95;;;;;;;13.72;100.00;101317.13;5054712;28;20033;-63
2023/08/07 02:15:38;;;;;;;8.45;2.70;;;;;;;13.68;100.00;101309.16;5054440;28;20036;-63
2023/08/07 02:18:04;;;;;;;13.48;2.95;;;;;;;13.62;100.00;101303.78;5054635;28;20107;-63
2023/08/07 02:20:29;;;;;;;9.82;2.90;;;;;;;13.61;100.00;101318.81;5053407;28;20022;-63
2023/08/07 02:22:54;;;;;;;11.55;3.00;;;;;;;13.58;100.00;101318.84;5036730;28;20458;-63
2023/08/07 02:25:20;;;;;;;9.80;2.80;;;;;;;13.57;100.00;101321.47;5054398;28;20029;-63
2023/08/07 02:27:45;;;;;;;8.48;2.85;;;;;;;13.56;100.00;101315.25;5054420;28;20474;-63
2023/08/07 02:30:11;;;;;;;11.25;3.10;;;;;;;13.53;100.00;101315.22;5054302;28;20111;-63
2023/08/07 02:32:36;;;;;;;10.52;3.22;;;;;;;13.51;100.00;101319.66;5054341;28;20399;-63
2023/08/07 02:35:02;;;;;;;10.00;2.85;;;;;;;13.51;100.00;101307.28;5054517;28;20064;-62
2023/08/07 02:37:27;;;;;;;9.90;3.35;;;;;;;13.52;100.00;101302.84;5054299;28;20021;-63
2023/08/07 02:39:53;;;;;;;10.40;3.13;;;;;;;13.55;100.00;101304.66;5054080;28;20359;-62
2023/08/07 02:42:19;;;;;;;8.40;2.97;;;;;;;13.60;100.00;101300.25;5054235;28;20032;-63
2023/08/07 02:44:44;;;;;;;13.50;3.90;;;;;;;13.61;100.00;101312.63;5036202;28;20545;-63
2023/08/07 02:47:10;;;;;;;15.50;3.47;;;;;;;13.61;100.00;101309.97;5053855;28;20053;-62
2023/08/07 02:49:35;;;;;;;9.35;3.08;;;;;;;13.63;100.00;101306.47;5054034;28;20475;-63
2023/08/07 02:52:01;;;;;;;8.23;2.90;;;;;;;13.65;100.00;101303.81;5054051;28;20036;-63
2023/08/07 02:54:26;;;;;;;10.40;3.13;;;;;;;13.69;100.00;101310.91;5053725;28;20052;-62
2023/08/07 02:56:51;;;;;;;11.38;3.10;;;;;;;13.70;100.00;101326.88;5053712;28;20040;-63
2023/08/07 02:59:17;;;;;;;13.27;3.42;;;;;;;13.69;100.00;101332.16;5053768;28;20390;-63
2023/08/07 03:01:43;;;;;;;8.68;3.45;;;;;;;13.67;100.00;101321.53;5053602;28;20026;-63
2023/08/07 03:04:09;;;;;;;15.98;3.67;;;;;;;13.70;100.00;101326.88;5052554;28;20036;-62
2023/08/07 03:06:34;;;;;;;11.55;3.45;;;;;;;13.75;100.00;101330.44;5053262;28;20036;-62
2023/08/07 03:09:00;;;;;;;15.02;3.40;;;;;;;13.73;100.00;101324.22;5053637;28;20031;-62
2023/08/07 03:11:25;;;;;;;8.38;3.10;;;;;;;13.70;100.00;101321.56;5053783;28;20047;-62
2023/08/07 03:13:51;;;;;;;12.73;3.42;;;;;;;13.70;100.00;101312.69;5053863;28;20532;-63
2023/08/07 03:16:16;;;;;;;12.73;3.15;;;;;;;13.69;100.00;101316.22;5053308;28;20375;-63
2023/08/07 03:18:41;;;;;;;12.00;3.10;;;;;;;13.69;100.00;101321.53;5053708;28;20033;-62
2023/08/07 03:21:07;;;;;;;10.10;3.20;;;;;;;13.69;100.00;101310.91;5053362;28;20497;-62
2023/08/07 03:23:32;;;;;;;10.45;2.95;;;;;;;13.71;100.00;101311.81;5053434;28;20025;-63
2023/08/07 03:26:09;;;;;;;9.48;3.10;;;;;;;13.70;100.00;101307.38;5053243;28;20040;-63
2023/08/07 03:28:35;;;;;;;12.25;2.92;;;;;;;13.68;100.00;101304.72;5052363;28;20021;-62
2023/08/07 03:31:01;;;;;;;11.30;3.15;;;;;;;13.66;100.00;101298.53;5053190;28;20029;-63
2023/08/07 03:33:26;;;;;;;13.45;3.17;;;;;;;13.63;100.00;101300.28;5053190;28;20032;-63
2023/08/07 03:35:52;;;;;;;12.02;3.10;;;;;;;13.63;100.00;101301.16;5053439;28;20115;-63
2023/08/07 03:38:18;;;;;;;9.38;3.00;;;;;;;13.63;100.00;101302.94;5053035;28;20100;-63
2023/08/07 03:40:43;;;;;;;13.13;3.40;;;;;;;13.60;100.00;101290.50;5053075;28;20033;-62
2023/08/07 03:43:09;;;;;;;11.40;3.17;;;;;;;13.63;100.00;101294.97;5053002;28;20033;-63
2023/08/07 03:45:35;;;;;;;9.77;3.58;;;;;;;13.64;100.00;101292.31;5052979;28;20025;-63
2023/08/07 03:48:00;;;;;;;10.50;3.30;;;;;;;13.67;100.00;101299.41;5052978;28;20024;-63
2023/08/07 03:50:25;;;;;;;15.68;3.40;;;;;;;13.66;100.00;101294.94;5052952;28;20025;-62
2023/08/07 03:52:51;;;;;;;12.40;3.47;;;;;;;13.70;100.00;101300.31;5052664;28;20049;-63
2023/08/07 03:55:16;;;;;;;10.25;3.35;;;;;;;13.71;100.00;101299.44;5052086;28;20497;-63
2023/08/07 03:57:42;;;;;;;8.73;3.13;;;;;;;13.73;100.00;101294.13;5052045;28;20060;-62
2023/08/07 04:00:08;;;;;;;13.60;3.33;;;;;;;13.77;100.00;101301.22;5052206;28;20033;-63
2023/08/07 04:02:33;;;;;;;10.73;3.30;;;;;;;13.78;100.00;101305.66;5052221;28;20025;-63
2023/08/07 04:04:58;;;;;;;11.52;3.38;;;;;;;13.78;100.00;101309.19;5051981;28;20108;-63
2023/08/07 04:07:24;;;;;;;10.20;3.28;;;;;;;13.80;100.00;101306.56;5052250;28;20506;-62
2023/08/07 04:09:49;;;;;;;9.90;3.22;;;;;;;13.79;100.00;101310.09;5051939;28;20486;-62
2023/08/07 04:12:15;;;;;;;9.13;3.28;;;;;;;13.79;99.09;101304.78;5051940;28;20504;-63
2023/08/07 04:14:40;;;;;;;14.02;3.42;;;;;;;13.80;98.87;101311.88;5052007;28;20029;-63
2023/08/07 04:17:05;;;;;;;8.90;2.90;;;;;;;13.76;98.12;101305.66;5051807;28;20415;-62
2023/08/07 04:19:31;;;;;;;13.45;3.30;;;;;;;13.74;98.10;101301.19;5053606;28;20364;-62
2023/08/07 04:21:56;;;;;;;9.30;3.22;;;;;;;13.76;98.54;101303.00;5055095;28;20025;-62
2023/08/07 04:24:22;;;;;;;7.32;2.75;;;;;;;13.81;99.18;101303.00;5055045;28;20116;-62
2023/08/07 04:26:47;;;;;;;10.60;3.35;;;;;;;13.81;97.98;101302.13;5055017;28;20017;-63
2023/08/07 04:29:12;;;;;;;9.50;2.95;;;;;;;13.81;98.81;101300.34;5055045;28;20060;-63
2023/08/07 04:31:38;;;;;;;9.57;3.50;;;;;;;13.81;98.44;101299.47;5055043;28;20479;-63
2023/08/07 04:34:03;;;;;;;11.40;3.20;;;;;;;13.84;97.82;101308.34;5054867;28;20069;-63
2023/08/07 04:36:28;;;;;;;8.88;2.83;;;;;;;13.83;97.69;101317.16;5036983;28;20033;-63
2023/08/07 04:38:55;;;;;;;14.10;3.20;;;;;;;13.77;97.64;101326.00;5054780;28;20033;-62
2023/08/07 04:41:21;;;;;;;10.90;3.20;;;;;;;13.80;98.06;101316.28;5054850;28;20120;-63
2023/08/07 04:43:48;;;;;;;10.73;3.30;;;;;;;13.81;98.50;101320.72;5054815;28;20031;-63
2023/08/07 04:46:13;;;;;;;9.27;2.83;;;;;;;13.79;98.12;101326.03;5054514;28;20107;-62
2023/08/07 04:48:39;;;;;;;10.00;3.10;;;;;;;13.80;97.99;101324.25;5054787;28;20061;-63
2023/08/07 04:51:04;;;;;;;11.07;3.45;;;;;;;13.84;98.17;101320.75;5054782;28;20032;-62
2023/08/07 04:53:29;;;;;;;8.70;2.85;;;;;;;13.85;98.41;101320.75;5015660;28;1129124;-62
2023/08/07 04:55:55;;;;;;;9.43;3.10;;;;;;;13.88;97.80;101323.41;5054601;28;20041;-63
2023/08/07 04:58:20;;;;;;;9.75;2.85;;;;;;;13.88;97.43;101328.72;5055907;28;20029;-63
2023/08/07 05:00:46;;;;;;;7.85;2.83;;;;;;;13.87;97.79;101315.44;5055799;28;20416;-63
2023/08/07 05:03:11;;;;;;;9.35;3.05;;;;;;;13.89;97.24;101324.31;5055892;28;20021;-63
2023/08/07 05:05:37;;;;;;;9.32;2.65;;;;;;;13.86;96.67;101327.81;5055692;28;20029;-62
2023/08/07 05:08:02;;;;;;;12.82;3.45;;;;;;;13.85;96.75;101323.41;5055526;28;20021;-62
2023/08/07 05:10:28;;;;;;;6.45;2.42;;;;;;;13.85;97.38;101322.50;5055608;28;20425;-63
2023/08/07 05:12:55;;;;;;;7.40;2.65;;;;;;;13.88;96.49;101336.72;5055504;28;20025;-63
2023/08/07 05:15:24;;;;;;;9.88;2.50;;;;;;;13.87;96.46;101336.69;5055622;28;20140;-62
2023/08/07 05:17:50;;;;;;;7.00;2.95;;;;;;;13.89;96.05;101332.28;5055204;28;20108;-63
2023/08/07 05:20:16;;;;;;;8.32;2.70;;;;;;;13.87;95.80;101344.66;5055543;28;20036;-62
2023/08/07 05:22:41;;;;;;;11.52;2.63;;;;;;;13.89;95.98;101340.25;5055222;28;20501;-63
2023/08/07 05:25:09;;;;;;;11.55;2.60;;;;;;;13.87;95.41;101336.69;5055191;28;20394;-62
2023/08/07 05:27:35;;;;;;;9.38;2.67;;;;;;;13.86;94.97;101341.09;5055426;28;20109;-62
2023/08/07 05:30:00;;;;;;;9.02;2.50;;;;;;;13.88;94.91;101357.97;5054838;28;20104;-63
2023/08/07 05:32:26;;;;;;;6.70;2.40;;;;;;;13.87;95.43;101353.50;5055083;28;20032;-63
2023/08/07 05:34:51;;;;;;;11.23;2.50;;;;;;;13.87;95.45;101358.81;5054072;28;20033;-62
2023/08/07 05:37:17;;;;;;;10.43;2.85;;;;;;;13.86;95.28;101364.13;5055138;28;20025;-62
2023/08/07 05:39:42;;;;;;;8.38;2.70;;;;;;;13.88;95.47;101367.69;5054964;28;20557;-63
2023/08/07 05:42:09;;;;;;;9.25;2.70;;;;;;;13.91;96.92;101368.56;5037025;28;20506;-63
2023/08/07 05:44:35;;;;;;;9.82;3.00;;;;;;;13.90;97.49;101371.25;5054748;28;20025;-63
2023/08/07 05:47:00;;;;;;;10.82;3.10;;;;;;;13.90;98.24;101384.53;5054780;28;20446;-63
2023/08/07 05:49:26;;;;;;;10.73;2.88;;;;;;;13.88;98.81;101388.94;5054644;28;20498;-62
2023/08/07 05:51:51;;;;;;;9.73;2.60;;;;;;;13.89;99.31;101390.72;5054719;28;20029;-62
2023/08/07 05:54:16;;;;;;;12.20;3.08;;;;;;;13.88;99.01;101378.31;5054506;28;20472;-63
2023/08/07 05:56:43;;;;;;;11.02;2.70;;;;;;;13.83;99.27;101388.91;5054541;28;20569;-62
2023/08/07 05:59:08;;;;;;;8.23;2.85;;;;;;;13.80;100.00;101383.59;5054525;28;20423;-62
2023/08/07 06:01:34;;;;;;;11.80;3.13;;;;;;;13.82;100.00;101380.94;5054359;28;20175;-62
2023/08/07 06:03:59;;;;;;;16.52;3.03;;;;;;;13.80;100.00;101388.91;5053441;28;20029;-62
2023/08/07 06:06:28;;;;;;;10.70;3.10;;;;;;;13.77;100.00;101391.53;5054307;28;20067;-63
2023/08/07 06:08:56;;;;;;;14.45;3.28;;;;;;;13.76;100.00;101385.34;5054770;28;20033;-63
2023/08/07 06:11:22;;;;;;;10.18;3.03;;;;;;;13.81;100.00;101390.66;5053111;28;20040;-63
2023/08/07 06:13:49;;;;;;;11.52;3.10;;;;;;;13.85;100.00;101392.47;5054378;28;20033;-62
2023/08/07 06:16:14;;;;;;;13.20;3.55;;;;;;;13.89;100.00;101396.03;5054072;28;20417;-62
2023/08/07 06:18:40;;;;;;;12.30;2.95;;;;;;;13.91;100.00;101400.47;5054295;28;20017;-63
2023/08/07 06:21:06;;;;;;;14.63;3.20;;;;;;;13.94;99.83;101392.50;5054102;28;20429;-62
2023/08/07 06:23:33;;;;;;;9.15;3.00;;;;;;;13.96;98.73;101404.06;5054088;28;20029;-62
2023/08/07 06:25:58;;;;;;;12.60;3.08;;;;;;;13.98;98.20;101409.38;5053947;28;20021;-63
2023/08/07 06:28:24;;;;;;;11.18;2.75;;;;;;;14.00;98.32;101399.63;5054305;28;20040;-62
2023/08/07 06:30:49;;;;;;;17.63;3.45;;;;;;;14.01;98.18;101417.38;5053910;28;20021;-62
2023/08/07 06:33:15;;;;;;;10.07;3.05;;;;;;;14.04;98.21;101420.91;5053960;28;20037;-62
2023/08/07 06:35:42;;;;;;;14.43;3.50;;;;;;;14.07;98.15;101422.69;5052755;28;20021;-63
2023/08/07 06:38:08;;;;;;;11.05;2.88;;;;;;;14.10;98.32;101413.88;5053939;28;20417;-63
2023/08/07 06:40:35;;;;;;;13.82;2.90;;;;;;;14.11;97.71;101418.31;5053776;28;20074;-63
2023/08/07 06:43:00;;;;;;;9.88;3.03;;;;;;;14.14;97.92;101415.66;5052786;28;20040;-63
2023/08/07 06:45:26;;;;;;;14.50;2.90;;;;;;;14.19;95.78;101422.78;5053665;28;20029;-64
2023/08/07 06:47:51;;;;;;;10.93;2.78;;;;;;;14.23;95.98;101418.38;5053313;28;20029;-63
2023/08/07 06:50:17;;;;;;;9.70;2.70;;;;;;;14.30;96.61;101422.81;5035674;28;20037;-63
2023/08/07 06:52:42;;;;;;;14.38;3.15;;;;;;;14.40;97.17;101427.31;5053322;28;20419;-63
2023/08/07 06:55:08;;;;;;;10.95;2.88;;;;;;;14.46;94.89;101429.97;5052924;28;20057;-63
2023/08/07 06:57:34;;;;;;;15.02;3.13;;;;;;;14.52;96.23;101431.84;5053501;28;20040;-63
2023/08/07 06:59:59;;;;;;;11.50;3.10;;;;;;;14.60;95.25;101437.16;5035251;28;20078;-64
2023/08/07 07:02:24;;;;;;;11.18;2.65;;;;;;;14.70;94.52;101429.22;5053283;28;20037;-63
2023/08/07 07:04:50;;;;;;;13.93;3.03;;;;;;;14.76;94.61;101441.66;5053187;28;20029;-62
2023/08/07 07:07:15;;;;;;;12.07;2.70;;;;;;;14.85;94.48;101443.44;5053223;28;20032;-63
2023/08/07 07:09:41;;;;;;;11.35;2.80;;;;;;;15.01;93.16;101445.25;5035160;28;20154;-63
2023/08/07 07:12:06;;;;;;;11.43;2.80;;;;;;;15.18;93.17;101442.63;5053026;28;20036;-63
2023/08/07 07:14:33;;;;;;;7.22;2.92;;;;;;;15.31;91.54;101449.75;5035246;28;20033;-64
2023/08/07 07:16:59;;;;;;;11.48;2.67;;;;;;;15.36;92.51;101447.09;5053121;28;20048;-63
2023/08/07 07:19:24;;;;;;;11.38;3.10;;;;;;;15.36;92.17;101460.41;5052954;28;20479;-64
2023/08/07 07:21:50;;;;;;;10.60;2.90;;;;;;;15.36;91.29;101473.72;5051703;28;20139;-64
2023/08/07 07:24:15;;;;;;;10.15;2.75;;;;;;;15.25;91.33;101477.28;5052831;28;20037;-63
2023/08/07 07:26:40;;;;;;;10.85;2.70;;;;;;;15.17;92.51;101476.38;5052752;28;20091;-64
2023/08/07 07:29:06;;;;;;;16.67;3.20;;;;;;;15.08;94.24;101487.00;5052765;28;20494;-63
2023/08/07 07:31:32;;;;;;;14.48;3.47;;;;;;;15.03;96.35;101494.97;5052701;28;20432;-63
2023/08/07 07:33:57;;;;;;;12.25;2.80;;;;;;;14.94;96.91;101497.56;5052252;28;20104;-63
2023/08/07 07:36:23;;;;;;;11.13;2.90;;;;;;;14.92;98.21;101502.03;5052784;28;20117;-63
2023/08/07 07:38:48;;;;;;;8.93;2.72;;;;;;;14.84;98.86;101497.56;5052480;28;20451;-63
2023/08/07 07:41:15;;;;;;;9.20;2.75;;;;;;;14.78;99.22;101494.00;5052220;28;20037;-62
2023/08/07 07:43:40;;;;;;;11.35;2.60;;;;;;;14.82;99.11;101494.91;5052366;28;20482;-62
2023/08/07 07:46:06;;;;;;;8.27;3.10;;;;;;;14.80;100.00;101501.09;5034341;28;20029;-62
2023/08/07 07:48:31;;;;;;;9.68;3.28;;;;;;;14.77;100.00;101507.28;5052575;28;20104;-61
2023/08/07 07:51:04;;;;;;;10.85;3.22;;;;;;;14.78;100.00;101503.75;5052520;28;20086;-62
2023/08/07 07:53:29;;;;;;;;;;;;;;;14.82;99.99;101502.88;5052784;28;20080;-62
2023/08/07 07:55:55;;;;;;;11.77;2.90;;;;;;;14.75;100.00;101509.06;5052719;28;20395;-62
2023/08/07 07:58:21;;;;;;;10.13;3.25;;;;;;;14.74;100.00;101513.50;5052601;28;20108;-63
2023/08/07 08:00:47;;;;;;;8.85;2.80;;;;;;;14.76;100.00;101518.81;5052451;28;20497;-62
2023/08/07 08:03:13;;;;;;;8.52;3.13;;;;;;;14.84;100.00;101513.53;5052300;28;20033;-62
2023/08/07 08:05:39;;;;;;;5.75;2.83;;;;;;;14.92;100.00;101506.47;5034360;28;20067;-63
2023/08/07 08:08:07;;;;;;;8.45;2.53;;;;;;;15.07;100.00;101516.25;5052485;28;20119;-63
2023/08/07 08:10:32;;;;;;;7.63;2.75;;;;;;;15.24;100.00;101522.50;5052340;28;20153;-63
2023/08/07 08:12:58;;;;;;;10.25;2.80;;;;;;;15.37;100.00;101515.44;5052399;28;20640;-63
2023/08/07 08:15:24;;;;;;;7.82;2.67;;;;;;;15.55;100.00;101514.59;5051448;28;20409;-62
2023/08/07 08:17:49;;;;;;;10.10;2.90;;;;;;;15.69;100.00;101516.41;5050826;28;20029;-63
2023/08/07 08:20:18;;;;;;;9.10;2.70;;;;;;;15.92;99.59;101513.72;5052074;28;20147;-63
2023/08/07 08:22:44;;;;;;;7.65;2.92;;;;;;;16.17;97.91;101521.72;5052055;28;20040;-63
2023/08/07 08:25:11;;;;;;;10.25;3.38;;;;;;;16.43;95.21;101518.97;5051884;28;20025;-64
2023/08/07 08:27:40;;;;;;;8.75;2.95;;;;;;;16.83;95.79;101519.78;5052051;28;20029;-64
2023/08/07 08:30:06;;;;;;;10.13;3.10;;;;;;;17.25;96.56;101507.09;5052281;28;20037;-64
2023/08/07 08:32:31;;;;;;;9.80;2.80;;;;;;;17.51;91.38;101515.84;5052310;28;20037;-64
2023/08/07 08:34:57;;;;;;;8.40;2.70;;;;;;;17.80;90.77;101516.53;5052226;28;20116;-64
2023/08/07 08:37:22;;;;;;;8.68;2.70;;;;;;;18.07;90.32;101520.75;5051960;28;20470;-64
2023/08/07 08:39:48;;;;;;;12.93;2.83;;;;;;;18.35;87.49;101521.38;5052056;28;20029;-63
2023/08/07 08:42:15;;;;;;;9.50;2.90;;;;;;;18.56;82.43;101514.91;5051729;28;20022;-63
2023/08/07 08:44:46;;;;;;;9.60;2.67;;;;;;;18.71;80.65;101523.69;5051642;28;20033;-63
2023/08/07 08:47:12;;;;;;;13.65;2.67;;;;;;;18.88;75.75;101515.41;5051661;28;20029;-63
2023/08/07 08:49:46;;;;;;;7.18;2.83;;;;;;;18.79;72.46;101520.88;5052062;28;20029;-62
2023/08/07 08:52:12;;;;;;;11.63;2.97;;;;;;;18.58;70.41;101532.69;5052053;28;20032;-63
2023/08/07 08:54:38;;;;;;;12.55;2.65;;;;;;;18.34;73.00;101533.84;5051329;28;20049;-63
2023/08/07 08:57:06;;;;;;;7.45;2.65;;;;;;;18.12;71.71;101532.31;5051823;28;20041;-62
2023/08/07 08:59:31;;;;;;;9.35;2.60;;;;;;;17.90;71.66;101535.16;5051899;28;20033;-64
2023/08/07 09:01:57;;;;;;;10.63;2.80;;;;;;;17.98;75.95;101537.75;5051584;28;20029;-63
2023/08/07 09:04:22;;;;;;;9.43;2.85;;;;;;;18.27;76.09;101540.16;5051791;28;20029;-64
2023/08/07 09:06:48;;;;;;;8.77;2.40;;;;;;;18.60;74.23;101535.38;5055469;28;20021;-63
2023/08/07 09:09:14;;;;;;;11.25;2.90;;;;;;;18.78;72.38;101545.88;5054262;28;20079;-63
2023/08/07 09:11:42;;;;;;;9.40;2.83;;;;;;;18.79;70.24;101533.38;5053586;28;20037;-63
2023/08/07 09:14:09;;;;;;;10.90;2.45;;;;;;;18.71;69.80;101545.09;5053729;28;20017;-63
2023/08/07 09:16:36;;;;;;;10.95;2.97;;;;;;;18.53;68.71;101548.81;5035747;28;20067;-61
2023/08/07 09:19:02;;;;;;;10.13;2.78;;;;;;;18.69;71.06;101543.28;5053455;28;20056;-63
2023/08/07 09:21:27;;;;;;;10.93;2.90;;;;;;;18.90;70.98;101548.41;5053301;28;20098;-63
2023/08/07 09:23:53;;;;;;;8.95;2.80;;;;;;;19.24;67.10;101553.34;5053513;28;20029;-63
2023/08/07 09:26:24;;;;;;;11.23;2.85;;;;;;;19.50;66.04;101558.34;5055111;28;20025;-62
2023/08/07 09:28:52;;;;;;;9.35;2.70;;;;;;;19.79;64.50;101549.00;5037287;28;20384;-62
2023/08/07 09:31:18;;;;;;;8.77;2.97;;;;;;;20.04;62.98;101549.44;5055479;28;20116;-63
2023/08/07 09:33:47;;;;;;;8.57;2.50;;;;;;;20.38;63.25;101550.59;5055135;28;20485;-63
2023/08/07 09:36:12;;;;;;;10.35;2.60;;;;;;;20.67;60.76;101550.09;5037186;28;20120;-62
2023/08/07 09:38:38;;;;;;;8.35;2.55;;;;;;;20.82;60.22;101551.59;5054997;28;20409;-63
2023/08/07 09:41:04;;;;;;;10.07;2.45;;;;;;;20.89;60.74;101549.66;5054914;28;20047;-61
2023/08/07 09:43:33;;;;;;;8.07;2.65;;;;;;;20.65;57.32;101553.75;5054999;28;20489;-62
2023/08/07 09:46:17;;;;;;;7.03;2.40;;;;;;;20.30;57.91;101559.72;5054829;28;20021;-62
2023/08/07 09:48:43;;;;;;;7.60;2.58;;;;;;;20.42;59.98;101559.50;5055077;28;20047;-61
2023/08/07 09:51:10;;;;;;;10.40;2.63;;;;;;;20.45;58.70;101564.81;5054910;28;20536;-63
2023/08/07 09:53:35;;;;;;;6.90;2.40;;;;;;;20.71;57.83;101564.34;5054889;28;20578;-63
2023/08/07 09:56:01;;;;;;;7.25;2.65;;;;;;;21.01;58.40;101573.59;5036528;28;20140;-64
2023/08/07 09:58:28;;;;;;;10.02;2.50;;;;;;;21.30;56.89;101570.28;5054721;28;20021;-62
2023/08/07 10:00:55;;;;;;;5.75;2.20;;;;;;;21.32;51.36;101564.91;5054581;28;20378;-64
2023/08/07 10:03:22;;;;;;;4.97;2.28;;;;;;;21.49;53.65;101560.91;5054692;28;20104;-63
2023/08/07 10:05:48;;;;;;;5.70;2.22;;;;;;;21.54;51.74;101566.19;5036562;28;20056;-64
2023/08/07 10:08:13;;;;;;;7.38;2.20;;;;;;;21.71;53.21;101576.53;5054757;28;20045;-63
2023/08/07 10:10:39;;;;;;;5.90;2.10;;;;;;;21.74;50.74;101571.09;5054153;28;20475;-63
2023/08/07 10:13:05;;;;;;;7.07;2.45;;;;;;;21.55;52.14;101578.72;5054476;28;20033;-64
2023/08/07 10:15:32;;;;;;;8.27;2.40;;;;;;;21.19;52.00;101580.38;5053639;28;20029;-65
2023/08/07 10:17:58;;;;;;;6.85;2.28;;;;;;;21.16;51.44;101572.41;5052899;28;20086;-63
2023/08/07 10:20:27;;;;;;;9.13;2.55;;;;;;;21.41;51.12;101576.34;5054366;28;20060;-62
2023/08/07 10:22:54;;;;;;;6.07;2.40;;;;;;;21.64;50.14;101569.56;5054154;28;20108;-64
2023/08/07 10:25:23;;;;;;;6.72;2.40;;;;;;;21.78;47.59;101574.59;5054236;28;20021;-61
2023/08/07 10:27:52;;;;;;;7.47;2.38;;;;;;;22.06;49.05;101582.88;5054207;28;20025;-63
2023/08/07 10:30:19;;;;;;;8.32;2.55;;;;;;;22.17;47.56;101575.44;5036104;28;20078;-63
2023/08/07 10:32:46;;;;;;;9.57;2.10;;;;;;;22.30;47.59;101576.00;5053832;28;20017;-64
2023/08/07 10:35:31;;;;;;;6.75;2.67;;;;;;;22.76;49.68;101581.03;5053835;28;20024;-63
2023/08/07 10:38:08;;;;;;;5.05;2.30;;;;;;;22.87;47.13;101584.31;5053880;28;20032;-62
2023/08/07 10:40:54;;;;;;;8.75;2.47;;;;;;;22.78;44.79;101600.72;5053990;28;20032;-63
2023/08/07 10:43:19;;;;;;;4.30;2.22;;;;;;;22.68;42.42;101597.41;5053558;28;20470;-62
2023/08/07 10:45:45;;;;;;;5.85;2.20;;;;;;;22.67;43.71;101589.38;5054005;28;20047;-62
2023/08/07 10:48:12;;;;;;;9.25;2.20;;;;;;;22.70;43.83;101594.69;5053450;28;20074;-63
2023/08/07 10:50:57;;;;;;;5.85;2.10;;;;;;;22.91;44.83;101593.19;5053720;28;20021;-64
2023/08/07 10:53:33;;;;;;;7.88;2.20;;;;;;;23.17;45.09;101600.56;5053843;28;20086;-63
2023/08/07 10:56:07;;;;;;;5.70;2.25;;;;;;;23.19;45.87;101588.78;5053308;28;20045;-63
2023/08/07 10:58:37;;;;;;;5.60;2.15;;;;;;;23.47;42.28;101599.63;5053560;28;20025;-62
2023/08/07 11:01:21;;;;;;;4.75;2.22;;;;;;;23.44;42.61;101604.22;5053751;28;20029;-63
2023/08/07 11:03:55;;;;;;;5.57;2.22;;;;;;;23.04;42.28;101604.53;5053378;28;20036;-63
2023/08/07 11:06:31;;;;;;;4.60;2.22;;;;;;;22.58;42.15;101598.59;5035528;28;20111;-62
2023/08/07 11:08:57;;;;;;;8.10;2.53;;;;;;;22.38;44.24;101607.19;5053903;28;20075;-63
2023/08/07 11:11:23;;;;;;;8.57;2.55;;;;;;;22.52;44.01;101603.25;5053473;28;20024;-62
2023/08/07 11:13:48;;;;;;;6.25;2.40;;;;;;;22.75;43.09;101600.81;5052071;28;20434;-62
2023/08/07 11:16:14;;;;;;;7.68;2.80;;;;;;;23.03;45.31;101602.75;5052944;28;20029;-62